sensor_id;sensor_type;location;lat;lon;timestamp;P1;durP1;ratioP1;P2;durP2;ratioP2
11537;SDS011;50159;49.426;11.182;2023-10-09T00:01:50;5.20;;;4.80;;
11537;SDS011;50159;49.426;11.182;2023-10-09T00:04:18;4.73;;;4.33;;
11537;SDS011;50159;49.426;11.182;2023-10-09T00:06:46;6.20;;;4.47;;
11537;SDS011;50159;49.426;11.182;2023-10-09T00:09:14;5.00;;;4.43;;
11537;SDS011;50159;49.426;11.182;2023-10-09T00:11:50;4.67;;;4.30;;
11537;SDS011;50159;49.426;11.182;2023-10-09T00:14:24;4.47;;;4.07;;
11537;SDS011;50159;49.426;11.182;2023-10-09T00:16:52;4.87;;;4.27;;
11537;SDS011;50159;49.426;11.182;2023-10-09T00:19:22;4.77;;;4.23;;
11537;SDS011;50159;49.426;11.182;2023-10-09T00:21:59;5.00;;;4.53;;
11537;SDS011;50159;49.426;11.182;2023-10-09T00:24:36;4.20;;;3.90;;
11537;SDS011;50159;49.426;11.182;2023-10-09T00:27:11;4.90;;;4.40;;
11537;SDS011;50159;49.426;11.182;2023-10-09T00:29:39;4.30;;;3.93;;
11537;SDS011;50159;49.426;11.182;2023-10-09T00:32:11;5.47;;;3.90;;
11537;SDS011;50159;49.426;11.182;2023-10-09T00:34:53;4.57;;;4.20;;
11537;SDS011;50159;49.426;11.182;2023-10-09T00:37:24;4.37;;;4.07;;
11537;SDS011;50159;49.426;11.182;2023-10-09T00:40:00;4.13;;;3.73;;
11537;SDS011;50159;49.426;11.182;2023-10-09T00:42:38;4.50;;;4.10;;
11537;SDS011;50159;49.426;11.182;2023-10-09T00:45:05;4.93;;;4.53;;
11537;SDS011;50159;49.426;11.182;2023-10-09T00:47:36;7.23;;;4.23;;
11537;SDS011;50159;49.426;11.182;2023-10-09T00:50:08;4.13;;;3.83;;
11537;SDS011;50159;49.426;11.182;2023-10-09T00:52:41;4.00;;;3.70;;
11537;SDS011;50159;49.426;11.182;2023-10-09T00:55:27;4.83;;;4.23;;
11537;SDS011;50159;49.426;11.182;2023-10-09T00:58:11;4.87;;;4.47;;
11537;SDS011;50159;49.426;11.182;2023-10-09T01:00:40;4.30;;;4.00;;
11537;SDS011;50159;49.426;11.182;2023-10-09T01:03:11;4.23;;;3.97;;
11537;SDS011;50159;49.426;11.182;2023-10-09T01:05:46;5.03;;;4.60;;
11537;SDS011;50159;49.426;11.182;2023-10-09T01:08:18;5.03;;;4.63;;
11537;SDS011;50159;49.426;11.182;2023-10-09T01:10:55;8.33;;;4.80;;
11537;SDS011;50159;49.426;11.182;2023-10-09T01:13:45;4.60;;;4.20;;
11537;SDS011;50159;49.426;11.182;2023-10-09T01:16:20;4.97;;;4.57;;
11537;SDS011;50159;49.426;11.182;2023-10-09T01:18:53;4.43;;;4.03;;
11537;SDS011;50159;49.426;11.182;2023-10-09T01:21:23;4.70;;;4.30;;
11537;SDS011;50159;49.426;11.182;2023-10-09T01:23:52;5.53;;;4.47;;
11537;SDS011;50159;49.426;11.182;2023-10-09T01:26:38;5.43;;;4.83;;
11537;SDS011;50159;49.426;11.182;2023-10-09T01:29:07;4.30;;;4.00;;
11537;SDS011;50159;49.426;11.182;2023-10-09T01:31:40;5.73;;;4.47;;
11537;SDS011;50159;49.426;11.182;2023-10-09T01:34:17;4.27;;;3.97;;
11537;SDS011;50159;49.426;11.182;2023-10-09T01:36:52;4.80;;;4.40;;
11537;SDS011;50159;49.426;11.182;2023-10-09T01:39:23;5.10;;;4.67;;
11537;SDS011;50159;49.426;11.182;2023-10-09T01:41:50;4.80;;;4.13;;
11537;SDS011;50159;49.426;11.182;2023-10-09T01:44:32;5.27;;;4.13;;
11537;SDS011;50159;49.426;11.182;2023-10-09T01:47:09;4.40;;;4.10;;
11537;SDS011;50159;49.426;11.182;2023-10-09T01:49:44;4.30;;;3.80;;
11537;SDS011;50159;49.426;11.182;2023-10-09T01:52:15;5.57;;;4.00;;
11537;SDS011;50159;49.426;11.182;2023-10-09T01:54:45;4.23;;;3.93;;
11537;SDS011;50159;49.426;11.182;2023-10-09T01:57:16;5.10;;;4.60;;
11537;SDS011;50159;49.426;11.182;2023-10-09T01:59:50;6.40;;;4.07;;
11537;SDS011;50159;49.426;11.182;2023-10-09T02:02:21;4.77;;;4.37;;
11537;SDS011;50159;49.426;11.182;2023-10-09T02:04:53;5.30;;;4.93;;
11537;SDS011;50159;49.426;11.182;2023-10-09T02:07:21;4.60;;;4.20;;
11537;SDS011;50159;49.426;11.182;2023-10-09T02:09:49;4.70;;;4.30;;
11537;SDS011;50159;49.426;11.182;2023-10-09T02:12:16;7.13;;;4.30;;
11537;SDS011;50159;49.426;11.182;2023-10-09T02:14:48;4.43;;;4.03;;
11537;SDS011;50159;49.426;11.182;2023-10-09T02:17:14;4.53;;;4.23;;
11537;SDS011;50159;49.426;11.182;2023-10-09T02:19:44;4.00;;;3.70;;
11537;SDS011;50159;49.426;11.182;2023-10-09T02:22:15;4.90;;;4.50;;
11537;SDS011;50159;49.426;11.182;2023-10-09T02:24:44;5.60;;;4.13;;
11537;SDS011;50159;49.426;11.182;2023-10-09T02:27:14;4.53;;;4.13;;
11537;SDS011;50159;49.426;11.182;2023-10-09T02:29:46;4.60;;;4.20;;
11537;SDS011;50159;49.426;11.182;2023-10-09T02:32:13;4.47;;;4.13;;
11537;SDS011;50159;49.426;11.182;2023-10-09T02:34:52;6.63;;;4.20;;
11537;SDS011;50159;49.426;11.182;2023-10-09T02:37:20;4.27;;;3.97;;
11537;SDS011;50159;49.426;11.182;2023-10-09T02:39:51;4.50;;;4.10;;
11537;SDS011;50159;49.426;11.182;2023-10-09T02:42:18;5.67;;;4.03;;
11537;SDS011;50159;49.426;11.182;2023-10-09T02:44:52;5.10;;;4.53;;
11537;SDS011;50159;49.426;11.182;2023-10-09T02:47:19;4.30;;;4.00;;
11537;SDS011;50159;49.426;11.182;2023-10-09T02:49:51;4.50;;;4.20;;
11537;SDS011;50159;49.426;11.182;2023-10-09T02:52:18;4.00;;;3.80;;
11537;SDS011;50159;49.426;11.182;2023-10-09T02:54:45;8.30;;;4.57;;
11537;SDS011;50159;49.426;11.182;2023-10-09T02:57:19;4.63;;;4.23;;
11537;SDS011;50159;49.426;11.182;2023-10-09T02:59:49;4.37;;;4.07;;
11537;SDS011;50159;49.426;11.182;2023-10-09T03:02:18;4.47;;;4.07;;
11537;SDS011;50159;49.426;11.182;2023-10-09T03:04:45;4.60;;;4.20;;
11537;SDS011;50159;49.426;11.182;2023-10-09T03:07:12;4.93;;;4.53;;
11537;SDS011;50159;49.426;11.182;2023-10-09T03:09:42;6.40;;;4.83;;
11537;SDS011;50159;49.426;11.182;2023-10-09T03:12:08;6.40;;;4.30;;
11537;SDS011;50159;49.426;11.182;2023-10-09T03:14:39;4.67;;;4.00;;
11537;SDS011;50159;49.426;11.182;2023-10-09T03:17:07;6.10;;;4.53;;
11537;SDS011;50159;49.426;11.182;2023-10-09T03:19:38;4.80;;;4.40;;
11537;SDS011;50159;49.426;11.182;2023-10-09T03:22:08;6.07;;;4.47;;
11537;SDS011;50159;49.426;11.182;2023-10-09T03:24:39;4.93;;;4.63;;
11537;SDS011;50159;49.426;11.182;2023-10-09T03:27:16;3.77;;;3.50;;
11537;SDS011;50159;49.426;11.182;2023-10-09T03:29:42;4.97;;;4.27;;
11537;SDS011;50159;49.426;11.182;2023-10-09T03:32:15;4.73;;;4.27;;
11537;SDS011;50159;49.426;11.182;2023-10-09T03:34:42;5.77;;;4.67;;
11537;SDS011;50159;49.426;11.182;2023-10-09T03:37:09;5.07;;;4.60;;
11537;SDS011;50159;49.426;11.182;2023-10-09T03:39:48;5.00;;;4.60;;
11537;SDS011;50159;49.426;11.182;2023-10-09T03:42:21;4.60;;;4.30;;
11537;SDS011;50159;49.426;11.182;2023-10-09T03:44:49;4.80;;;4.50;;
11537;SDS011;50159;49.426;11.182;2023-10-09T03:47:19;5.00;;;4.33;;
11537;SDS011;50159;49.426;11.182;2023-10-09T03:49:49;4.50;;;4.20;;
11537;SDS011;50159;49.426;11.182;2023-10-09T03:52:17;4.30;;;3.97;;
11537;SDS011;50159;49.426;11.182;2023-10-09T03:54:45;4.20;;;4.00;;
11537;SDS011;50159;49.426;11.182;2023-10-09T03:57:15;4.87;;;4.47;;
11537;SDS011;50159;49.426;11.182;2023-10-09T03:59:46;5.67;;;4.50;;
11537;SDS011;50159;49.426;11.182;2023-10-09T04:02:13;5.77;;;4.27;;
11537;SDS011;50159;49.426;11.182;2023-10-09T04:04:42;4.50;;;4.20;;
11537;SDS011;50159;49.426;11.182;2023-10-09T04:07:13;4.23;;;3.93;;
11537;SDS011;50159;49.426;11.182;2023-10-09T04:09:43;5.77;;;4.17;;
11537;SDS011;50159;49.426;11.182;2023-10-09T04:12:29;5.77;;;4.27;;
11537;SDS011;50159;49.426;11.182;2023-10-09T04:14:57;4.50;;;4.10;;
11537;SDS011;50159;49.426;11.182;2023-10-09T04:17:27;4.97;;;4.40;;
11537;SDS011;50159;49.426;11.182;2023-10-09T04:20:02;5.20;;;4.57;;
11537;SDS011;50159;49.426;11.182;2023-10-09T04:22:45;7.97;;;5.27;;
11537;SDS011;50159;49.426;11.182;2023-10-09T04:25:26;4.80;;;4.40;;
11537;SDS011;50159;49.426;11.182;2023-10-09T04:27:56;4.40;;;4.07;;
11537;SDS011;50159;49.426;11.182;2023-10-09T04:30:37;4.50;;;4.07;;
11537;SDS011;50159;49.426;11.182;2023-10-09T04:33:12;4.27;;;3.97;;
11537;SDS011;50159;49.426;11.182;2023-10-09T04:35:55;4.07;;;3.77;;
11537;SDS011;50159;49.426;11.182;2023-10-09T04:38:46;4.50;;;4.20;;
11537;SDS011;50159;49.426;11.182;2023-10-09T04:41:22;5.97;;;5.37;;
11537;SDS011;50159;49.426;11.182;2023-10-09T04:43:58;4.90;;;4.50;;
11537;SDS011;50159;49.426;11.182;2023-10-09T04:46:44;4.97;;;4.50;;
11537;SDS011;50159;49.426;11.182;2023-10-09T04:49:32;5.57;;;5.00;;
11537;SDS011;50159;49.426;11.182;2023-10-09T04:52:16;5.73;;;5.00;;
11537;SDS011;50159;49.426;11.182;2023-10-09T04:54:46;4.80;;;4.43;;
11537;SDS011;50159;49.426;11.182;2023-10-09T04:57:39;5.23;;;4.73;;
11537;SDS011;50159;49.426;11.182;2023-10-09T05:00:10;5.37;;;4.93;;
11537;SDS011;50159;49.426;11.182;2023-10-09T05:02:59;5.40;;;4.87;;
11537;SDS011;50159;49.426;11.182;2023-10-09T05:05:38;5.07;;;4.60;;
11537;SDS011;50159;49.426;11.182;2023-10-09T05:08:10;6.60;;;4.47;;
11537;SDS011;50159;49.426;11.182;2023-10-09T05:10:57;4.80;;;4.40;;
11537;SDS011;50159;49.426;11.182;2023-10-09T05:13:25;5.47;;;4.97;;
11537;SDS011;50159;49.426;11.182;2023-10-09T05:18:49;7.77;;;4.90;;
11537;SDS011;50159;49.426;11.182;2023-10-09T05:21:23;6.37;;;5.53;;
11537;SDS011;50159;49.426;11.182;2023-10-09T05:23:59;6.40;;;5.70;;
11537;SDS011;50159;49.426;11.182;2023-10-09T05:26:44;9.37;;;5.53;;
11537;SDS011;50159;49.426;11.182;2023-10-09T05:29:11;5.93;;;5.30;;
11537;SDS011;50159;49.426;11.182;2023-10-09T05:31:56;6.50;;;5.90;;
11537;SDS011;50159;49.426;11.182;2023-10-09T05:34:29;6.47;;;5.87;;
11537;SDS011;50159;49.426;11.182;2023-10-09T05:37:19;7.17;;;6.30;;
11537;SDS011;50159;49.426;11.182;2023-10-09T05:39:51;6.50;;;5.90;;
11537;SDS011;50159;49.426;11.182;2023-10-09T05:42:31;9.83;;;6.27;;
11537;SDS011;50159;49.426;11.182;2023-10-09T05:45:09;6.90;;;6.20;;
11537;SDS011;50159;49.426;11.182;2023-10-09T05:47:44;6.60;;;5.70;;
11537;SDS011;50159;49.426;11.182;2023-10-09T05:50:21;6.70;;;6.00;;
11537;SDS011;50159;49.426;11.182;2023-10-09T05:52:55;5.90;;;5.30;;
11537;SDS011;50159;49.426;11.182;2023-10-09T05:55:23;6.23;;;5.27;;
11537;SDS011;50159;49.426;11.182;2023-10-09T05:57:50;5.50;;;5.07;;
11537;SDS011;50159;49.426;11.182;2023-10-09T06:00:17;6.37;;;4.93;;
11537;SDS011;50159;49.426;11.182;2023-10-09T06:03:03;5.23;;;4.73;;
11537;SDS011;50159;49.426;11.182;2023-10-09T06:05:45;5.00;;;4.70;;
11537;SDS011;50159;49.426;11.182;2023-10-09T06:08:23;5.07;;;4.57;;
11537;SDS011;50159;49.426;11.182;2023-10-09T06:11:04;4.77;;;4.40;;
11537;SDS011;50159;49.426;11.182;2023-10-09T06:13:55;5.97;;;4.90;;
11537;SDS011;50159;49.426;11.182;2023-10-09T06:16:30;5.37;;;4.90;;
11537;SDS011;50159;49.426;11.182;2023-10-09T06:19:08;4.73;;;4.30;;
11537;SDS011;50159;49.426;11.182;2023-10-09T06:21:55;4.77;;;4.37;;
11537;SDS011;50159;49.426;11.182;2023-10-09T06:24:40;4.47;;;4.07;;
11537;SDS011;50159;49.426;11.182;2023-10-09T06:27:09;4.27;;;3.97;;
11537;SDS011;50159;49.426;11.182;2023-10-09T06:29:36;4.70;;;4.40;;
11537;SDS011;50159;49.426;11.182;2023-10-09T06:32:07;4.37;;;3.97;;
11537;SDS011;50159;49.426;11.182;2023-10-09T06:34:53;4.97;;;4.47;;
11537;SDS011;50159;49.426;11.182;2023-10-09T06:37:23;6.07;;;4.63;;
11537;SDS011;50159;49.426;11.182;2023-10-09T06:39:53;5.77;;;4.30;;
11537;SDS011;50159;49.426;11.182;2023-10-09T06:42:24;4.77;;;4.27;;
11537;SDS011;50159;49.426;11.182;2023-10-09T06:45:10;4.17;;;3.90;;
11537;SDS011;50159;49.426;11.182;2023-10-09T06:47:48;9.33;;;4.87;;
11537;SDS011;50159;49.426;11.182;2023-10-09T06:50:23;4.50;;;4.20;;
11537;SDS011;50159;49.426;11.182;2023-10-09T06:53:13;4.70;;;4.30;;
11537;SDS011;50159;49.426;11.182;2023-10-09T06:55:39;4.33;;;4.03;;
11537;SDS011;50159;49.426;11.182;2023-10-09T06:58:15;4.57;;;4.10;;
11537;SDS011;50159;49.426;11.182;2023-10-09T07:00:49;4.87;;;4.47;;
11537;SDS011;50159;49.426;11.182;2023-10-09T07:03:26;5.17;;;4.80;;
11537;SDS011;50159;49.426;11.182;2023-10-09T07:06:05;4.80;;;4.50;;
11537;SDS011;50159;49.426;11.182;2023-10-09T07:08:36;5.47;;;4.83;;
11537;SDS011;50159;49.426;11.182;2023-10-09T07:11:04;4.50;;;4.17;;
11537;SDS011;50159;49.426;11.182;2023-10-09T07:13:51;4.43;;;4.03;;
11537;SDS011;50159;49.426;11.182;2023-10-09T07:16:22;4.37;;;4.07;;
11537;SDS011;50159;49.426;11.182;2023-10-09T07:19:06;4.53;;;4.13;;
11537;SDS011;50159;49.426;11.182;2023-10-09T07:21:46;4.70;;;4.40;;
11537;SDS011;50159;49.426;11.182;2023-10-09T07:24:20;4.37;;;4.07;;
11537;SDS011;50159;49.426;11.182;2023-10-09T07:27:04;4.47;;;4.17;;
11537;SDS011;50159;49.426;11.182;2023-10-09T07:29:36;4.00;;;3.73;;
11537;SDS011;50159;49.426;11.182;2023-10-09T07:32:15;4.23;;;3.93;;
11537;SDS011;50159;49.426;11.182;2023-10-09T07:34:49;3.87;;;3.67;;
11537;SDS011;50159;49.426;11.182;2023-10-09T07:37:26;4.40;;;4.00;;
11537;SDS011;50159;49.426;11.182;2023-10-09T07:40:04;4.00;;;3.70;;
11537;SDS011;50159;49.426;11.182;2023-10-09T07:42:34;4.83;;;3.30;;
11537;SDS011;50159;49.426;11.182;2023-10-09T07:45:07;3.40;;;3.20;;
11537;SDS011;50159;49.426;11.182;2023-10-09T07:48:00;3.17;;;2.97;;
11537;SDS011;50159;49.426;11.182;2023-10-09T07:50:28;3.50;;;3.20;;
11537;SDS011;50159;49.426;11.182;2023-10-09T07:53:16;3.43;;;3.20;;
11537;SDS011;50159;49.426;11.182;2023-10-09T07:55:55;3.47;;;3.17;;
11537;SDS011;50159;49.426;11.182;2023-10-09T07:58:25;4.90;;;3.53;;
11537;SDS011;50159;49.426;11.182;2023-10-09T08:00:55;3.20;;;3.00;;
11537;SDS011;50159;49.426;11.182;2023-10-09T08:03:34;3.10;;;2.93;;
11537;SDS011;50159;49.426;11.182;2023-10-09T08:06:02;2.97;;;2.63;;
11537;SDS011;50159;49.426;11.182;2023-10-09T08:08:47;2.90;;;2.80;;
11537;SDS011;50159;49.426;11.182;2023-10-09T08:11:33;2.93;;;2.70;;
11537;SDS011;50159;49.426;11.182;2023-10-09T08:14:08;2.67;;;2.57;;
11537;SDS011;50159;49.426;11.182;2023-10-09T08:16:54;2.80;;;2.60;;
11537;SDS011;50159;49.426;11.182;2023-10-09T08:19:40;3.40;;;2.57;;
11537;SDS011;50159;49.426;11.182;2023-10-09T08:22:23;2.60;;;2.50;;
11537;SDS011;50159;49.426;11.182;2023-10-09T08:24:52;3.50;;;3.20;;
11537;SDS011;50159;49.426;11.182;2023-10-09T08:27:26;2.77;;;2.67;;
11537;SDS011;50159;49.426;11.182;2023-10-09T08:30:00;2.90;;;2.80;;
11537;SDS011;50159;49.426;11.182;2023-10-09T08:32:57;2.70;;;2.50;;
11537;SDS011;50159;49.426;11.182;2023-10-09T08:35:30;2.60;;;2.50;;
11537;SDS011;50159;49.426;11.182;2023-10-09T08:38:09;2.13;;;2.03;;
11537;SDS011;50159;49.426;11.182;2023-10-09T08:40:37;2.10;;;2.00;;
11537;SDS011;50159;49.426;11.182;2023-10-09T08:43:08;2.13;;;2.03;;
11537;SDS011;50159;49.426;11.182;2023-10-09T08:45:37;2.43;;;2.33;;
11537;SDS011;50159;49.426;11.182;2023-10-09T08:48:08;2.47;;;2.10;;
11537;SDS011;50159;49.426;11.182;2023-10-09T08:50:42;2.43;;;2.30;;
11537;SDS011;50159;49.426;11.182;2023-10-09T08:53:10;2.70;;;2.50;;
11537;SDS011;50159;49.426;11.182;2023-10-09T08:55:38;3.17;;;2.87;;
11537;SDS011;50159;49.426;11.182;2023-10-09T08:58:05;3.23;;;2.97;;
11537;SDS011;50159;49.426;11.182;2023-10-09T09:00:47;3.37;;;3.10;;
11537;SDS011;50159;49.426;11.182;2023-10-09T09:03:14;4.03;;;3.20;;
11537;SDS011;50159;49.426;11.182;2023-10-09T09:05:46;5.93;;;3.73;;
11537;SDS011;50159;49.426;11.182;2023-10-09T09:08:22;4.90;;;3.60;;
11537;SDS011;50159;49.426;11.182;2023-10-09T09:13:47;21.60;;;4.60;;
11537;SDS011;50159;49.426;11.182;2023-10-09T09:16:21;10.03;;;4.90;;
11537;SDS011;50159;49.426;11.182;2023-10-09T09:18:56;7.40;;;4.80;;
11537;SDS011;50159;49.426;11.182;2023-10-09T09:21:41;6.67;;;4.37;;
11537;SDS011;50159;49.426;11.182;2023-10-09T09:24:11;15.30;;;4.67;;
11537;SDS011;50159;49.426;11.182;2023-10-09T09:26:41;12.60;;;5.20;;
11537;SDS011;50159;49.426;11.182;2023-10-09T09:29:15;8.07;;;4.40;;
11537;SDS011;50159;49.426;11.182;2023-10-09T09:31:56;5.33;;;3.73;;
11537;SDS011;50159;49.426;11.182;2023-10-09T09:34:49;8.33;;;3.83;;
11537;SDS011;50159;49.426;11.182;2023-10-09T09:37:33;8.10;;;3.60;;
11537;SDS011;50159;49.426;11.182;2023-10-09T09:40:10;5.70;;;3.47;;
11537;SDS011;50159;49.426;11.182;2023-10-09T09:43:00;3.53;;;3.00;;
11537;SDS011;50159;49.426;11.182;2023-10-09T09:45:33;6.70;;;3.63;;
11537;SDS011;50159;49.426;11.182;2023-10-09T09:48:04;3.23;;;3.03;;
11537;SDS011;50159;49.426;11.182;2023-10-09T09:50:33;3.20;;;3.00;;
11537;SDS011;50159;49.426;11.182;2023-10-09T09:53:03;2.70;;;2.50;;
11537;SDS011;50159;49.426;11.182;2023-10-09T09:55:34;3.30;;;3.00;;
11537;SDS011;50159;49.426;11.182;2023-10-09T09:58:08;3.90;;;2.67;;
11537;SDS011;50159;49.426;11.182;2023-10-09T10:00:45;2.73;;;2.47;;
11537;SDS011;50159;49.426;11.182;2023-10-09T10:03:23;2.67;;;2.47;;
11537;SDS011;50159;49.426;11.182;2023-10-09T10:05:54;2.60;;;2.43;;
11537;SDS011;50159;49.426;11.182;2023-10-09T10:08:23;2.20;;;2.10;;
11537;SDS011;50159;49.426;11.182;2023-10-09T10:10:59;3.17;;;2.40;;
11537;SDS011;50159;49.426;11.182;2023-10-09T10:16:15;2.07;;;1.97;;
11537;SDS011;50159;49.426;11.182;2023-10-09T10:21:38;2.30;;;2.10;;
11537;SDS011;50159;49.426;11.182;2023-10-09T10:35:20;2.30;;;2.20;;
11537;SDS011;50159;49.426;11.182;2023-10-09T10:37:58;2.47;;;2.30;;
11537;SDS011;50159;49.426;11.182;2023-10-09T10:40:34;4.00;;;3.13;;
11537;SDS011;50159;49.426;11.182;2023-10-09T10:43:05;4.33;;;2.87;;
11537;SDS011;50159;49.426;11.182;2023-10-09T10:45:36;7.70;;;3.63;;
11537;SDS011;50159;49.426;11.182;2023-10-09T10:48:05;10.63;;;3.37;;
11537;SDS011;50159;49.426;11.182;2023-10-09T10:50:37;5.03;;;3.50;;
11537;SDS011;50159;49.426;11.182;2023-10-09T10:53:21;5.23;;;3.30;;
11537;SDS011;50159;49.426;11.182;2023-10-09T10:55:58;4.83;;;3.37;;
11537;SDS011;50159;49.426;11.182;2023-10-09T10:58:52;2.90;;;2.70;;
11537;SDS011;50159;49.426;11.182;2023-10-09T11:01:38;6.93;;;3.27;;
11537;SDS011;50159;49.426;11.182;2023-10-09T11:04:20;4.37;;;3.47;;
11537;SDS011;50159;49.426;11.182;2023-10-09T11:06:59;7.40;;;3.53;;
11537;SDS011;50159;49.426;11.182;2023-10-09T11:09:48;5.50;;;3.90;;
11537;SDS011;50159;49.426;11.182;2023-10-09T11:12:26;5.50;;;3.43;;
11537;SDS011;50159;49.426;11.182;2023-10-09T11:15:08;7.90;;;3.40;;
11537;SDS011;50159;49.426;11.182;2023-10-09T11:18:02;8.77;;;3.80;;
11537;SDS011;50159;49.426;11.182;2023-10-09T11:20:52;15.00;;;4.53;;
11537;SDS011;50159;49.426;11.182;2023-10-09T11:23:30;8.37;;;3.90;;
11537;SDS011;50159;49.426;11.182;2023-10-09T11:26:01;6.83;;;3.60;;
11537;SDS011;50159;49.426;11.182;2023-10-09T11:29:11;10.80;;;4.60;;
11537;SDS011;50159;49.426;11.182;2023-10-09T11:31:59;4.60;;;3.23;;
11537;SDS011;50159;49.426;11.182;2023-10-09T11:34:33;8.97;;;3.83;;
11537;SDS011;50159;49.426;11.182;2023-10-09T11:39:37;7.90;;;3.63;;
11537;SDS011;50159;49.426;11.182;2023-10-09T11:42:21;8.07;;;3.63;;
11537;SDS011;50159;49.426;11.182;2023-10-09T11:45:03;7.10;;;3.30;;
11537;SDS011;50159;49.426;11.182;2023-10-09T11:47:46;7.93;;;3.27;;
11537;SDS011;50159;49.426;11.182;2023-10-09T11:50:46;4.13;;;3.30;;
11537;SDS011;50159;49.426;11.182;2023-10-09T11:53:20;5.13;;;3.43;;
11537;SDS011;50159;49.426;11.182;2023-10-09T11:55:50;9.77;;;3.73;;
11537;SDS011;50159;49.426;11.182;2023-10-09T11:58:18;6.33;;;3.40;;
11537;SDS011;50159;49.426;11.182;2023-10-09T12:03:17;4.70;;;3.30;;
11537;SDS011;50159;49.426;11.182;2023-10-09T12:05:48;4.80;;;2.70;;
11537;SDS011;50159;49.426;11.182;2023-10-09T12:08:14;4.57;;;3.10;;
11537;SDS011;50159;49.426;11.182;2023-10-09T12:10:42;6.77;;;2.70;;
11537;SDS011;50159;49.426;11.182;2023-10-09T12:13:09;4.23;;;2.73;;
11537;SDS011;50159;49.426;11.182;2023-10-09T12:15:36;3.33;;;2.90;;
11537;SDS011;50159;49.426;11.182;2023-10-09T12:18:04;6.20;;;3.00;;
11537;SDS011;50159;49.426;11.182;2023-10-09T12:20:41;5.73;;;3.60;;
11537;SDS011;50159;49.426;11.182;2023-10-09T12:23:11;4.83;;;2.87;;
11537;SDS011;50159;49.426;11.182;2023-10-09T12:25:41;8.60;;;3.83;;
11537;SDS011;50159;49.426;11.182;2023-10-09T12:28:11;4.13;;;3.67;;
11537;SDS011;50159;49.426;11.182;2023-10-09T12:30:40;5.93;;;3.30;;
11537;SDS011;50159;49.426;11.182;2023-10-09T12:33:08;7.57;;;3.80;;
11537;SDS011;50159;49.426;11.182;2023-10-09T12:35:38;6.70;;;3.80;;
11537;SDS011;50159;49.426;11.182;2023-10-09T12:38:05;7.13;;;3.93;;
11537;SDS011;50159;49.426;11.182;2023-10-09T12:40:36;7.90;;;3.93;;
11537;SDS011;50159;49.426;11.182;2023-10-09T12:43:05;9.73;;;4.13;;
11537;SDS011;50159;49.426;11.182;2023-10-09T12:45:41;9.13;;;3.67;;
11537;SDS011;50159;49.426;11.182;2023-10-09T12:48:09;10.03;;;4.43;;
11537;SDS011;50159;49.426;11.182;2023-10-09T12:50:36;4.77;;;3.57;;
11537;SDS011;50159;49.426;11.182;2023-10-09T12:53:08;5.93;;;3.60;;
11537;SDS011;50159;49.426;11.182;2023-10-09T12:55:38;16.37;;;4.43;;
11537;SDS011;50159;49.426;11.182;2023-10-09T12:58:08;10.77;;;4.30;;
11537;SDS011;50159;49.426;11.182;2023-10-09T13:00:41;4.57;;;3.33;;
11537;SDS011;50159;49.426;11.182;2023-10-09T13:03:16;4.60;;;2.90;;
11537;SDS011;50159;49.426;11.182;2023-10-09T13:05:44;8.67;;;3.77;;
11537;SDS011;50159;49.426;11.182;2023-10-09T13:08:21;11.50;;;4.63;;
11537;SDS011;50159;49.426;11.182;2023-10-09T13:11:04;9.23;;;3.53;;
11537;SDS011;50159;49.426;11.182;2023-10-09T13:13:43;7.70;;;4.23;;
11537;SDS011;50159;49.426;11.182;2023-10-09T13:16:13;4.67;;;3.87;;
11537;SDS011;50159;49.426;11.182;2023-10-09T13:21:21;6.67;;;3.73;;
11537;SDS011;50159;49.426;11.182;2023-10-09T13:24:01;4.60;;;3.00;;
11537;SDS011;50159;49.426;11.182;2023-10-09T13:26:29;10.20;;;4.30;;
11537;SDS011;50159;49.426;11.182;2023-10-09T13:29:02;11.33;;;3.80;;
11537;SDS011;50159;49.426;11.182;2023-10-09T13:31:30;6.93;;;3.67;;
11537;SDS011;50159;49.426;11.182;2023-10-09T13:34:01;9.10;;;3.87;;
11537;SDS011;50159;49.426;11.182;2023-10-09T13:36:30;11.13;;;4.07;;
11537;SDS011;50159;49.426;11.182;2023-10-09T13:39:01;7.77;;;4.13;;
11537;SDS011;50159;49.426;11.182;2023-10-09T13:41:51;13.60;;;3.40;;
11537;SDS011;50159;49.426;11.182;2023-10-09T13:44:30;7.90;;;4.10;;
11537;SDS011;50159;49.426;11.182;2023-10-09T13:47:01;4.53;;;3.07;;
11537;SDS011;50159;49.426;11.182;2023-10-09T13:49:32;7.20;;;3.87;;
11537;SDS011;50159;49.426;11.182;2023-10-09T13:52:00;13.90;;;4.17;;
11537;SDS011;50159;49.426;11.182;2023-10-09T13:54:28;7.67;;;3.43;;
11537;SDS011;50159;49.426;11.182;2023-10-09T13:57:06;12.47;;;4.20;;
11537;SDS011;50159;49.426;11.182;2023-10-09T13:59:34;7.53;;;3.83;;
11537;SDS011;50159;49.426;11.182;2023-10-09T14:02:02;8.03;;;3.30;;
11537;SDS011;50159;49.426;11.182;2023-10-09T14:04:36;8.53;;;3.37;;
11537;SDS011;50159;49.426;11.182;2023-10-09T14:07:03;9.23;;;4.10;;
11537;SDS011;50159;49.426;11.182;2023-10-09T14:09:32;10.40;;;3.83;;
11537;SDS011;50159;49.426;11.182;2023-10-09T14:12:05;6.03;;;3.57;;
11537;SDS011;50159;49.426;11.182;2023-10-09T14:14:35;6.27;;;3.50;;
11537;SDS011;50159;49.426;11.182;2023-10-09T14:17:05;4.67;;;3.70;;
11537;SDS011;50159;49.426;11.182;2023-10-09T14:19:42;7.93;;;3.43;;
11537;SDS011;50159;49.426;11.182;2023-10-09T14:24:44;6.07;;;3.43;;
11537;SDS011;50159;49.426;11.182;2023-10-09T14:27:12;9.40;;;3.87;;
11537;SDS011;50159;49.426;11.182;2023-10-09T14:29:49;5.43;;;3.20;;
11537;SDS011;50159;49.426;11.182;2023-10-09T14:32:16;2.90;;;2.70;;
11537;SDS011;50159;49.426;11.182;2023-10-09T14:34:43;3.73;;;2.90;;
11537;SDS011;50159;49.426;11.182;2023-10-09T14:37:17;2.90;;;2.70;;
11537;SDS011;50159;49.426;11.182;2023-10-09T14:39:45;2.90;;;2.60;;
11537;SDS011;50159;49.426;11.182;2023-10-09T14:42:15;2.70;;;2.43;;
11537;SDS011;50159;49.426;11.182;2023-10-09T14:44:42;2.60;;;2.40;;
11537;SDS011;50159;49.426;11.182;2023-10-09T14:47:14;2.10;;;2.00;;
11537;SDS011;50159;49.426;11.182;2023-10-09T14:49:41;2.23;;;2.13;;
11537;SDS011;50159;49.426;11.182;2023-10-09T14:52:14;1.93;;;1.80;;
11537;SDS011;50159;49.426;11.182;2023-10-09T14:54:46;2.20;;;2.10;;
11537;SDS011;50159;49.426;11.182;2023-10-09T14:57:14;2.23;;;2.13;;
11537;SDS011;50159;49.426;11.182;2023-10-09T14:59:41;2.03;;;1.93;;
11537;SDS011;50159;49.426;11.182;2023-10-09T15:02:10;2.50;;;2.30;;
11537;SDS011;50159;49.426;11.182;2023-10-09T15:04:38;2.83;;;2.63;;
11537;SDS011;50159;49.426;11.182;2023-10-09T15:07:06;1.73;;;1.73;;
11537;SDS011;50159;49.426;11.182;2023-10-09T15:09:33;2.10;;;2.00;;
11537;SDS011;50159;49.426;11.182;2023-10-09T15:12:03;2.03;;;1.93;;
11537;SDS011;50159;49.426;11.182;2023-10-09T15:14:32;1.70;;;1.63;;
11537;SDS011;50159;49.426;11.182;2023-10-09T15:17:00;1.93;;;1.83;;
11537;SDS011;50159;49.426;11.182;2023-10-09T15:19:28;1.87;;;1.77;;
11537;SDS011;50159;49.426;11.182;2023-10-09T15:21:58;1.90;;;1.83;;
11537;SDS011;50159;49.426;11.182;2023-10-09T15:24:26;2.00;;;1.90;;
11537;SDS011;50159;49.426;11.182;2023-10-09T15:26:57;2.20;;;2.03;;
11537;SDS011;50159;49.426;11.182;2023-10-09T15:29:24;2.10;;;2.00;;
11537;SDS011;50159;49.426;11.182;2023-10-09T15:31:55;2.87;;;2.50;;
11537;SDS011;50159;49.426;11.182;2023-10-09T15:34:40;2.00;;;1.90;;
11537;SDS011;50159;49.426;11.182;2023-10-09T15:37:07;1.90;;;1.80;;
11537;SDS011;50159;49.426;11.182;2023-10-09T15:39:34;2.13;;;2.03;;
11537;SDS011;50159;49.426;11.182;2023-10-09T15:42:02;2.60;;;2.40;;
11537;SDS011;50159;49.426;11.182;2023-10-09T15:44:37;2.70;;;2.50;;
11537;SDS011;50159;49.426;11.182;2023-10-09T15:47:04;3.00;;;2.80;;